createdAt,value
2023-02-17T00:01:14.217Z,39.42
2023-02-17T00:03:41.957Z,38.83
2023-02-17T00:06:11.148Z,39.40
2023-02-17T00:08:38.615Z,38.28
2023-02-17T00:11:06.825Z,37.75
2023-02-17T00:13:34.437Z,39.90
2023-02-17T00:16:10.079Z,38.75
2023-02-17T00:18:37.849Z,37.83
2023-02-17T00:21:31.759Z,39.03
2023-02-17T00:24:00.118Z,39.78
2023-02-17T00:26:27.637Z,38.55
2023-02-17T00:28:55.064Z,39.40
2023-02-17T00:31:23.696Z,38.70
2023-02-17T00:33:54.615Z,37.05
2023-02-17T00:36:22.191Z,38.90
2023-02-17T00:38:49.916Z,37.83
2023-02-17T00:41:18.130Z,38.10
2023-02-17T00:43:45.961Z,37.85
2023-02-17T00:46:14.139Z,37.08
2023-02-17T00:48:41.793Z,39.13
2023-02-17T00:51:09.982Z,37.38
2023-02-17T00:53:37.837Z,37.30
2023-02-17T00:56:08.185Z,38.13
2023-02-17T00:58:36.163Z,39.60
2023-02-17T01:01:04.212Z,37.35
2023-02-17T01:03:31.646Z,39.42
2023-02-17T01:05:59.243Z,38.67
2023-02-17T01:08:26.881Z,39.33
2023-02-17T01:10:54.328Z,41.78
2023-02-17T01:13:21.778Z,40.30
2023-02-17T01:15:51.649Z,41.08
2023-02-17T01:18:21.211Z,42.65
2023-02-17T01:20:49.931Z,42.08
2023-02-17T01:23:17.496Z,40.60
2023-02-17T01:25:46.511Z,40.53
2023-02-17T01:28:18.941Z,41.00
2023-02-17T01:30:48.054Z,40.80
2023-02-17T01:33:15.770Z,42.10
2023-02-17T01:35:43.334Z,40.03
2023-02-17T01:38:12.819Z,40.22
2023-02-17T01:40:47.930Z,41.08
2023-02-17T01:43:17.605Z,39.63
2023-02-17T01:45:47.414Z,38.65
2023-02-17T01:48:17.885Z,38.47
2023-02-17T01:50:55.667Z,40.42
2023-02-17T01:53:26.832Z,38.60
2023-02-17T01:55:55.125Z,37.38
2023-02-17T01:58:23.520Z,39.50
2023-02-17T02:00:52.878Z,35.90
2023-02-17T02:03:21.002Z,36.63
2023-02-17T02:05:48.398Z,36.22
2023-02-17T02:08:15.999Z,35.42
2023-02-17T02:10:43.726Z,35.67
2023-02-17T02:13:11.352Z,35.63
2023-02-17T02:15:49.197Z,33.85
2023-02-17T02:18:22.497Z,34.38
2023-02-17T02:21:17.582Z,32.55
2023-02-17T02:24:16.668Z,31.15
2023-02-17T02:27:02.002Z,29.05
2023-02-17T02:29:35.362Z,29.67
2023-02-17T02:32:43.744Z,29.58
2023-02-17T02:35:32.693Z,29.30
2023-02-17T02:38:06.923Z,30.15
2023-02-17T02:40:38.057Z,28.40
2023-02-17T02:43:05.999Z,28.62
2023-02-17T02:45:34.936Z,30.10
2023-02-17T02:48:03.017Z,30.10
2023-02-17T02:51:27.998Z,28.95
2023-02-17T02:54:42.248Z,28.95
2023-02-17T02:57:28.677Z,30.85
2023-02-17T03:00:17.277Z,28.60
2023-02-17T03:02:52.390Z,29.92
2023-02-17T03:05:39.450Z,31.87
2023-02-17T03:08:33.673Z,31.65
2023-02-17T03:11:01.639Z,30.73
2023-02-17T03:13:34.301Z,30.80
2023-02-17T03:16:01.845Z,32.55
2023-02-17T03:18:32.793Z,32.92
2023-02-17T03:21:06.991Z,33.78
2023-02-17T03:23:34.402Z,30.40
2023-02-17T03:26:02.139Z,30.83
2023-02-17T03:28:29.514Z,30.90
2023-02-17T03:30:57.921Z,30.90
2023-02-17T03:33:25.580Z,31.08
2023-02-17T03:35:52.950Z,31.52
2023-02-17T03:38:20.295Z,30.33
2023-02-17T03:40:47.932Z,31.83
2023-02-17T03:43:17.879Z,31.50
2023-02-17T03:45:45.611Z,30.77
2023-02-17T03:48:13.306Z,31.42
2023-02-17T03:50:40.705Z,30.62
2023-02-17T03:53:08.108Z,29.92
2023-02-17T03:55:35.748Z,31.08
2023-02-17T03:58:03.732Z,31.12
2023-02-17T04:00:31.345Z,32.05
2023-02-17T04:02:59.332Z,30.85
2023-02-17T04:05:26.808Z,31.77
2023-02-17T04:07:54.253Z,32.17
2023-02-17T04:10:21.877Z,32.60
2023-02-17T04:12:49.260Z,33.10
2023-02-17T04:15:16.813Z,34.38
2023-02-17T04:17:44.489Z,33.20
2023-02-17T04:20:12.195Z,31.42
2023-02-17T04:22:39.593Z,33.85
2023-02-17T04:25:07.363Z,34.00
2023-02-17T04:27:34.706Z,32.88
2023-02-17T04:30:02.260Z,33.08
2023-02-17T04:32:30.008Z,33.00
2023-02-17T04:34:57.343Z,34.08
2023-02-17T04:37:24.681Z,34.58
2023-02-17T04:39:52.298Z,33.92
2023-02-17T04:42:19.694Z,32.45
2023-02-17T04:44:47.066Z,32.55
2023-02-17T04:47:15.054Z,32.95
2023-02-17T04:49:42.522Z,32.30
2023-02-17T04:52:09.883Z,32.92
2023-02-17T04:54:37.766Z,33.55
2023-02-17T04:57:05.084Z,31.40
2023-02-17T04:59:32.457Z,31.42
2023-02-17T05:02:00.158Z,29.60
2023-02-17T05:04:27.678Z,30.50
2023-02-17T05:06:55.127Z,30.15
2023-02-17T05:09:22.776Z,30.25
2023-02-17T05:11:50.176Z,30.73
2023-02-17T05:14:17.604Z,30.70
2023-02-17T05:16:45.421Z,30.30
2023-02-17T05:19:12.884Z,30.65
2023-02-17T05:21:40.290Z,30.45
2023-02-17T05:24:08.134Z,28.92
2023-02-17T05:26:35.523Z,29.80
2023-02-17T05:29:03.150Z,29.75
2023-02-17T05:31:30.959Z,28.98
2023-02-17T05:33:58.603Z,30.65
2023-02-17T05:36:25.957Z,31.15
2023-02-17T05:38:53.647Z,30.25
2023-02-17T05:41:21.061Z,28.85
2023-02-17T05:43:48.831Z,30.60
2023-02-17T05:46:16.580Z,30.48
2023-02-17T05:48:44.290Z,30.48
2023-02-17T05:51:13.743Z,31.65
2023-02-17T05:53:41.396Z,32.30
2023-02-17T05:56:09.082Z,30.88
2023-02-17T05:58:36.642Z,29.95
2023-02-17T06:01:09.142Z,30.02
2023-02-17T06:03:36.980Z,30.23
2023-02-17T06:06:05.884Z,29.77
2023-02-17T06:08:34.168Z,29.75
2023-02-17T06:11:01.919Z,30.02
2023-02-17T06:13:29.297Z,28.95
2023-02-17T06:15:56.797Z,30.15
2023-02-17T06:18:24.613Z,30.70
2023-02-17T06:20:55.344Z,30.23
2023-02-17T06:23:23.798Z,30.02
2023-02-17T06:25:51.489Z,30.98
2023-02-17T06:28:19.254Z,35.38
2023-02-17T06:30:46.720Z,36.85
2023-02-17T06:33:14.386Z,32.90
2023-02-17T06:35:41.816Z,31.45
2023-02-17T06:38:09.320Z,32.13
2023-02-17T06:40:36.962Z,32.42
2023-02-17T06:43:06.592Z,31.00
2023-02-17T06:45:34.531Z,30.27
2023-02-17T06:48:02.360Z,29.92
2023-02-17T06:50:29.839Z,30.20
2023-02-17T06:52:57.207Z,28.45
2023-02-17T06:55:24.916Z,29.05
2023-02-17T06:57:52.314Z,32.22
2023-02-17T07:00:20.684Z,31.15
2023-02-17T07:02:48.567Z,31.48
2023-02-17T07:05:16.046Z,30.27
2023-02-17T07:07:43.449Z,30.20
2023-02-17T07:10:11.509Z,31.58
2023-02-17T07:12:38.963Z,31.90
2023-02-17T07:15:07.535Z,30.83
2023-02-17T07:17:35.976Z,29.52
2023-02-17T07:20:03.414Z,29.87
2023-02-17T07:22:30.861Z,30.95
2023-02-17T07:24:58.562Z,29.90
2023-02-17T07:27:26.068Z,30.37
2023-02-17T07:29:53.472Z,30.42
2023-02-17T07:32:21.188Z,30.73
2023-02-17T07:34:48.598Z,27.00
2023-02-17T07:37:16.088Z,27.83
2023-02-17T07:39:43.783Z,28.08
2023-02-17T07:42:11.593Z,27.42
2023-02-17T07:44:39.677Z,27.52
2023-02-17T07:47:07.451Z,29.15
2023-02-17T07:49:34.913Z,30.70
2023-02-17T07:52:04.931Z,30.05
2023-02-17T07:54:32.925Z,31.25
2023-02-17T07:57:00.594Z,36.65
2023-02-17T07:59:28.100Z,38.28
2023-02-17T08:01:55.787Z,39.67
2023-02-17T08:04:23.529Z,34.60
2023-02-17T08:06:50.989Z,32.95
2023-02-17T08:09:37.010Z,29.40
2023-02-17T08:12:23.386Z,29.92
2023-02-17T08:14:50.782Z,28.48
2023-02-17T08:17:18.447Z,27.83
2023-02-17T08:19:48.918Z,26.65
2023-02-17T08:22:18.507Z,27.48
2023-02-17T08:24:46.410Z,27.27
2023-02-17T08:27:15.081Z,24.63
2023-02-17T08:29:43.015Z,22.65
2023-02-17T08:32:11.143Z,23.23
2023-02-17T08:34:38.627Z,22.62
2023-02-17T08:37:07.055Z,20.65
2023-02-17T08:39:35.735Z,22.08
2023-02-17T08:42:05.781Z,20.20
2023-02-17T08:44:35.982Z,20.42
2023-02-17T08:47:05.162Z,20.37
2023-02-17T08:49:33.179Z,20.65
2023-02-17T08:52:00.966Z,19.92
2023-02-17T08:54:28.785Z,20.35
2023-02-17T08:56:56.532Z,20.50
2023-02-17T08:59:24.029Z,19.95
2023-02-17T09:01:51.866Z,18.50
2023-02-17T09:04:19.441Z,18.77
2023-02-17T09:06:49.539Z,16.92
2023-02-17T09:09:19.125Z,16.25
2023-02-17T09:11:46.643Z,16.52
2023-02-17T09:14:14.039Z,17.17
2023-02-17T09:16:41.864Z,18.55
2023-02-17T09:19:09.278Z,18.83
2023-02-17T09:21:37.016Z,18.30
2023-02-17T09:24:05.041Z,17.62
2023-02-17T09:26:34.985Z,16.17
2023-02-17T09:29:04.234Z,16.25
2023-02-17T09:31:32.267Z,16.55
2023-02-17T09:34:00.296Z,17.17
2023-02-17T09:36:30.937Z,17.15
2023-02-17T09:38:59.243Z,19.65
2023-02-17T09:41:34.533Z,17.52
2023-02-17T09:44:02.729Z,18.33
2023-02-17T09:46:49.742Z,18.23
2023-02-17T09:49:27.061Z,17.85
2023-02-17T09:52:07.951Z,18.87
2023-02-17T09:54:41.743Z,18.20
2023-02-17T09:57:13.253Z,18.67
2023-02-17T09:59:45.333Z,17.48
2023-02-17T10:02:19.639Z,17.70
2023-02-17T10:04:48.489Z,17.25
2023-02-17T10:07:27.850Z,17.70
2023-02-17T10:10:21.452Z,17.95
2023-02-17T10:12:51.768Z,17.17
2023-02-17T10:15:24.572Z,19.25
2023-02-17T10:20:41.705Z,17.62
2023-02-17T10:23:35.561Z,16.80
2023-02-17T10:26:03.382Z,17.05
2023-02-17T10:28:39.840Z,18.90
2023-02-17T10:31:15.747Z,18.15
2023-02-17T10:34:03.418Z,20.55
2023-02-17T10:36:38.125Z,20.90
2023-02-17T10:39:22.750Z,19.85
2023-02-17T10:41:51.782Z,20.52
2023-02-17T10:44:23.591Z,21.55
2023-02-17T10:46:53.257Z,22.25
2023-02-17T10:49:29.988Z,24.73
2023-02-17T10:52:13.715Z,26.73
2023-02-17T10:54:53.042Z,26.30
2023-02-17T10:57:22.086Z,25.33
2023-02-17T10:59:50.533Z,23.42
2023-02-17T11:02:23.246Z,24.05
2023-02-17T11:04:54.939Z,25.00
2023-02-17T11:07:32.768Z,24.45
2023-02-17T11:10:03.192Z,24.42
2023-02-17T11:12:40.392Z,24.27
2023-02-17T11:15:20.156Z,21.37
2023-02-17T11:17:48.103Z,20.08
2023-02-17T11:20:15.799Z,20.95
2023-02-17T11:22:59.214Z,19.77
2023-02-17T11:25:35.507Z,18.70
2023-02-17T11:28:05.980Z,18.17
2023-02-17T11:30:48.856Z,19.15
2023-02-17T11:33:22.626Z,19.45
2023-02-17T11:35:55.408Z,22.70
2023-02-17T11:38:26.437Z,24.48
2023-02-17T11:40:59.802Z,23.58
2023-02-17T11:43:29.650Z,22.75
2023-02-17T11:46:05.686Z,26.23
2023-02-17T11:49:03.990Z,25.70
2023-02-17T11:51:46.610Z,29.35
2023-02-17T11:54:41.607Z,26.98
2023-02-17T11:57:39.350Z,27.77
2023-02-17T12:00:22.593Z,29.45
2023-02-17T12:03:18.259Z,31.98
2023-02-17T12:05:59.058Z,33.53
2023-02-17T12:08:55.823Z,34.80
2023-02-17T12:11:41.184Z,33.08
2023-02-17T12:14:31.449Z,32.45
2023-02-17T12:17:40.480Z,34.28
2023-02-17T12:20:41.643Z,43.40
2023-02-17T12:23:30.740Z,36.20
2023-02-17T12:26:04.595Z,35.40
2023-02-17T12:28:50.509Z,35.10
2023-02-17T12:31:39.572Z,35.42
2023-02-17T12:34:17.954Z,34.58
2023-02-17T12:36:49.944Z,37.85
2023-02-17T12:39:19.571Z,35.33
2023-02-17T12:42:12.853Z,35.67
2023-02-17T12:44:49.889Z,35.53
2023-02-17T12:47:41.329Z,34.70
2023-02-17T12:50:21.504Z,34.88
2023-02-17T12:52:52.815Z,35.40
2023-02-17T12:55:32.605Z,33.95
2023-02-17T12:58:07.820Z,34.50
2023-02-17T13:00:45.079Z,33.00
2023-02-17T13:03:13.362Z,35.10
2023-02-17T13:05:42.511Z,36.15
2023-02-17T13:08:21.761Z,33.45
2023-02-17T13:11:04.419Z,35.13
2023-02-17T13:13:34.566Z,37.08
2023-02-17T13:16:11.583Z,35.65
2023-02-17T13:18:50.759Z,39.22
2023-02-17T13:21:28.860Z,34.42
2023-02-17T13:24:31.477Z,34.88
2023-02-17T13:27:12.032Z,34.67
2023-02-17T13:29:39.633Z,32.45
2023-02-17T13:32:11.973Z,35.38
2023-02-17T13:34:46.278Z,36.00
2023-02-17T13:37:32.484Z,36.20
2023-02-17T13:40:02.804Z,37.47
2023-02-17T13:42:39.429Z,35.90
2023-02-17T13:45:14.752Z,35.17
2023-02-17T13:47:43.208Z,35.63
2023-02-17T13:50:35.940Z,33.15
2023-02-17T13:53:22.245Z,36.20
2023-02-17T13:55:49.709Z,34.50
2023-02-17T13:58:22.824Z,36.38
2023-02-17T14:00:50.433Z,34.38
2023-02-17T14:03:30.015Z,27.17
2023-02-17T14:05:59.496Z,35.15
2023-02-17T14:08:36.224Z,35.70
2023-02-17T14:11:09.180Z,34.58
2023-02-17T14:13:38.243Z,36.05
2023-02-17T14:16:09.502Z,36.10
2023-02-17T14:18:44.653Z,35.60
2023-02-17T14:21:24.485Z,37.30
2023-02-17T14:23:54.214Z,36.35
2023-02-17T14:26:46.496Z,39.38
2023-02-17T14:29:15.760Z,39.28
2023-02-17T14:31:47.918Z,39.20
2023-02-17T14:34:27.743Z,37.60
2023-02-17T14:36:58.098Z,35.85
2023-02-17T14:39:25.921Z,34.70
2023-02-17T14:41:53.930Z,36.08
2023-02-17T14:44:21.597Z,35.90
2023-02-17T14:46:49.407Z,34.50
2023-02-17T14:49:16.839Z,33.35
2023-02-17T14:51:44.251Z,32.63
2023-02-17T14:54:16.722Z,34.22
2023-02-17T14:57:05.351Z,34.05
2023-02-17T14:59:33.103Z,32.63
2023-02-17T15:02:00.754Z,33.20
2023-02-17T15:04:28.255Z,33.28
2023-02-17T15:06:56.018Z,34.28
2023-02-17T15:09:28.551Z,33.65
2023-02-17T15:11:56.672Z,33.15
2023-02-17T15:14:24.104Z,35.03
2023-02-17T15:16:51.525Z,32.88
2023-02-17T15:19:19.265Z,32.00
2023-02-17T15:21:49.604Z,33.85
2023-02-17T15:24:23.247Z,33.53
2023-02-17T15:26:51.466Z,32.97
2023-02-17T15:29:22.309Z,33.05
2023-02-17T15:31:51.162Z,32.13
2023-02-17T15:34:22.789Z,32.92
2023-02-17T15:36:50.221Z,33.42
2023-02-17T15:39:19.186Z,34.80
2023-02-17T15:41:47.910Z,34.38
2023-02-17T15:44:18.136Z,34.05
2023-02-17T15:46:46.243Z,37.72
2023-02-17T15:49:14.133Z,37.58
2023-02-17T15:51:41.631Z,37.85
2023-02-17T15:54:09.202Z,40.92
2023-02-17T15:56:49.202Z,43.05
2023-02-17T15:59:24.862Z,41.25
2023-02-17T16:01:56.051Z,41.45
2023-02-17T16:04:23.808Z,41.37
2023-02-17T16:06:51.211Z,40.35
2023-02-17T16:09:20.606Z,39.75
2023-02-17T16:11:53.226Z,42.25
2023-02-17T16:14:28.449Z,40.45
2023-02-17T16:16:56.668Z,42.08
2023-02-17T16:19:24.770Z,42.03
2023-02-17T16:21:53.175Z,41.05
2023-02-17T16:24:20.839Z,39.95
2023-02-17T16:26:48.497Z,43.47
2023-02-17T16:29:21.049Z,43.17
2023-02-17T16:31:49.409Z,44.63
2023-02-17T16:34:22.174Z,47.83
2023-02-17T16:36:52.040Z,51.30
2023-02-17T16:39:21.022Z,52.33
2023-02-17T16:41:49.118Z,47.20
2023-02-17T16:44:19.139Z,46.95
2023-02-17T16:46:49.024Z,46.30
2023-02-17T16:49:20.231Z,47.85
2023-02-17T16:51:47.637Z,48.87
2023-02-17T16:54:16.437Z,47.22
2023-02-17T16:56:47.238Z,47.28
2023-02-17T16:59:16.739Z,48.17
2023-02-17T17:01:45.755Z,47.47
2023-02-17T17:04:17.396Z,52.75
2023-02-17T17:06:51.169Z,51.65
2023-02-17T17:09:21.821Z,50.47
2023-02-17T17:11:50.336Z,52.22
2023-02-17T17:14:20.579Z,54.10
2023-02-17T17:16:57.924Z,53.00
2023-02-17T17:19:25.471Z,53.65
2023-02-17T17:21:53.193Z,52.22
2023-02-17T17:24:20.634Z,52.83
2023-02-17T17:26:50.144Z,54.25
2023-02-17T17:29:19.070Z,55.95
2023-02-17T17:31:46.763Z,63.33
2023-02-17T17:34:14.341Z,71.57
2023-02-17T17:36:44.501Z,74.22
2023-02-17T17:39:17.767Z,68.55
2023-02-17T17:41:46.871Z,67.90
2023-02-17T17:44:14.951Z,64.65
2023-02-17T17:46:42.692Z,61.33
2023-02-17T17:49:13.257Z,60.35
2023-02-17T17:51:41.026Z,64.50
2023-02-17T17:54:09.310Z,65.32
2023-02-17T17:56:42.906Z,68.32
2023-02-17T17:59:11.470Z,67.15
2023-02-17T18:01:39.828Z,64.60
2023-02-17T18:04:09.336Z,66.78
2023-02-17T18:06:43.688Z,65.90
2023-02-17T18:09:30.322Z,63.20
2023-02-17T18:12:01.810Z,61.97
2023-02-17T18:14:29.704Z,58.85
2023-02-17T18:16:58.069Z,61.05
2023-02-17T18:19:26.398Z,62.28
2023-02-17T18:21:54.590Z,62.00
2023-02-17T18:24:22.028Z,66.47
2023-02-17T18:26:52.028Z,67.32
2023-02-17T18:29:20.672Z,64.78
2023-02-17T18:31:49.025Z,65.12
2023-02-17T18:34:16.910Z,64.05
2023-02-17T18:36:44.740Z,67.47
2023-02-17T18:39:12.671Z,67.95
2023-02-17T18:41:40.703Z,71.12
2023-02-17T18:44:13.614Z,67.50
2023-02-17T18:46:41.200Z,68.70
2023-02-17T18:49:09.003Z,67.68
2023-02-17T18:51:36.460Z,64.47
2023-02-17T18:54:03.995Z,60.75
2023-02-17T18:56:33.242Z,58.70
2023-02-17T18:59:01.518Z,60.28
2023-02-17T19:01:32.166Z,59.45
2023-02-17T19:03:59.869Z,57.40
2023-02-17T19:06:29.370Z,60.50
2023-02-17T19:08:57.217Z,56.53
2023-02-17T19:11:25.493Z,56.72
2023-02-17T19:13:53.218Z,54.45
2023-02-17T19:16:25.870Z,57.47
2023-02-17T19:18:54.324Z,55.83
2023-02-17T19:21:22.269Z,53.25
2023-02-17T19:23:51.204Z,54.00
2023-02-17T19:26:19.049Z,52.67
2023-02-17T19:28:46.944Z,51.83
2023-02-17T19:31:20.869Z,52.47
2023-02-17T19:33:48.660Z,50.50
2023-02-17T19:36:21.641Z,48.87
2023-02-17T19:38:50.239Z,49.78
2023-02-17T19:41:19.637Z,40.25
2023-02-17T19:43:47.171Z,31.62
2023-02-17T19:46:18.247Z,29.42
2023-02-17T19:48:45.920Z,27.10
2023-02-17T19:51:16.562Z,22.58
2023-02-17T19:53:44.310Z,20.90
2023-02-17T19:56:18.043Z,21.25
2023-02-17T19:58:46.314Z,18.98
2023-02-17T20:01:19.559Z,19.75
2023-02-17T20:03:47.233Z,20.62
2023-02-17T20:06:18.116Z,20.88
2023-02-17T20:08:46.013Z,20.95
2023-02-17T20:11:14.676Z,21.02
2023-02-17T20:13:46.186Z,23.25
2023-02-17T20:16:15.990Z,21.48
2023-02-17T20:18:48.500Z,23.30
2023-02-17T20:21:19.568Z,23.55
2023-02-17T20:23:46.927Z,21.23
2023-02-17T20:26:20.101Z,21.35
2023-02-17T20:28:48.376Z,20.90
2023-02-17T20:31:16.238Z,24.10
2023-02-17T20:33:44.805Z,23.23
2023-02-17T20:36:12.581Z,22.20
2023-02-17T20:38:40.629Z,20.55
2023-02-17T20:41:10.032Z,20.73
2023-02-17T20:43:38.356Z,21.00
2023-02-17T20:46:06.144Z,20.42
2023-02-17T20:48:33.946Z,20.25
2023-02-17T20:51:03.865Z,19.85
2023-02-17T20:53:31.350Z,19.12
2023-02-17T20:55:58.756Z,20.17
2023-02-17T20:58:26.469Z,20.08
2023-02-17T21:00:53.899Z,19.70
2023-02-17T21:03:21.343Z,20.40
2023-02-17T21:05:49.244Z,20.37
2023-02-17T21:08:16.660Z,19.75
2023-02-17T21:10:44.135Z,18.45
2023-02-17T21:13:11.885Z,19.95
2023-02-17T21:15:39.322Z,18.10
2023-02-17T21:18:08.738Z,20.33
2023-02-17T21:20:36.662Z,20.25
2023-02-17T21:23:04.233Z,23.60
2023-02-17T21:25:31.603Z,22.73
2023-02-17T21:27:59.510Z,22.58
2023-02-17T21:30:29.248Z,21.58
2023-02-17T21:32:56.900Z,21.30
2023-02-17T21:35:24.528Z,21.20
2023-02-17T21:37:52.001Z,21.52
2023-02-17T21:40:19.716Z,20.77
2023-02-17T21:43:05.925Z,20.33
2023-02-17T21:45:38.261Z,21.35
2023-02-17T21:48:07.374Z,21.10
2023-02-17T21:50:34.745Z,21.15
2023-02-17T21:53:02.184Z,22.33
2023-02-17T21:55:29.890Z,25.27
2023-02-17T21:57:57.306Z,25.50
2023-02-17T22:00:24.862Z,26.58
2023-02-17T22:02:52.579Z,27.13
2023-02-17T22:05:20.004Z,27.95
2023-02-17T22:07:51.048Z,28.70
2023-02-17T22:10:18.822Z,29.90
2023-02-17T22:12:46.249Z,30.00
2023-02-17T22:15:16.069Z,31.23
2023-02-17T22:17:44.024Z,30.02
2023-02-17T22:20:12.038Z,32.03
2023-02-17T22:22:39.425Z,31.70
2023-02-17T22:25:07.152Z,33.33
2023-02-17T22:27:34.604Z,32.53
2023-02-17T22:30:02.397Z,33.13
2023-02-17T22:32:30.182Z,32.80
2023-02-17T22:34:57.593Z,36.03
2023-02-17T22:37:24.984Z,39.45
2023-02-17T22:39:53.946Z,33.75
2023-02-17T22:42:22.692Z,29.75
2023-02-17T22:44:50.228Z,23.77
2023-02-17T22:47:18.085Z,23.10
2023-02-17T22:49:45.479Z,24.60
2023-02-17T22:52:13.003Z,25.62
2023-02-17T22:54:41.010Z,18.77
2023-02-17T22:57:08.382Z,16.08
2023-02-17T22:59:35.749Z,14.73
2023-02-17T23:02:03.428Z,14.80
2023-02-17T23:04:30.979Z,14.65
2023-02-17T23:06:59.090Z,14.60
2023-02-17T23:09:26.730Z,13.50
2023-02-17T23:11:54.537Z,12.60
2023-02-17T23:14:26.915Z,12.40
2023-02-17T23:19:23.663Z,12.32
2023-02-17T23:21:53.578Z,11.32
2023-02-17T23:24:22.312Z,11.35
2023-02-17T23:26:50.420Z,11.25
2023-02-17T23:29:18.614Z,9.80
2023-02-17T23:31:46.704Z,10.20
2023-02-17T23:34:15.818Z,10.13
2023-02-17T23:36:44.162Z,9.60
2023-02-17T23:39:12.870Z,9.05
2023-02-17T23:41:40.358Z,8.68
2023-02-17T23:44:10.052Z,7.85
2023-02-17T23:46:38.168Z,9.07
2023-02-17T23:49:06.030Z,9.05
2023-02-17T23:51:33.431Z,7.70
2023-02-17T23:54:01.216Z,8.77
2023-02-17T23:56:31.447Z,8.13
2023-02-17T23:58:59.206Z,7.53
